Time;durP1;ratioP1;P1;durP2;ratioP2;P2;SDS_P1;SDS_P2;PMS_P1;PMS_P2;Temp;Humidity;BMP_temperature;BMP_pressure;BME280_temperature;BME280_humidity;BME280_pressure;Samples;Min_cycle;Max_cycle;Signal;HPM_P1;HPM_P2
2023/03/15 00:00:52;;;;;;;0.93;0.55;;;21.40;62.80;;;;;;5064786;28;20148;-70
2023/03/15 00:03:18;;;;;;;1.20;0.40;;;21.40;62.90;;;;;;5047535;28;20028;-70
2023/03/15 00:05:44;;;;;;;1.20;0.73;;;21.40;63.00;;;;;;5081020;28;20021;-70
2023/03/15 00:08:11;;;;;;;1.38;0.45;;;21.40;63.00;;;;;;5051073;28;20048;-70
2023/03/15 00:10:42;;;;;;;0.70;0.40;;;21.40;63.00;;;;;;5051014;28;20014;-70
2023/03/15 00:13:09;;;;;;;1.38;0.47;;;21.40;63.00;;;;;;5051026;28;20024;-70
2023/03/15 00:15:34;;;;;;;1.95;0.40;;;21.40;63.20;;;;;;5051323;28;20075;-71
2023/03/15 00:18:02;;;;;;;0.82;0.40;;;21.40;63.20;;;;;;5050978;28;20025;-70
2023/03/15 00:20:28;;;;;;;2.50;0.57;;;21.40;63.10;;;;;;5052161;28;20021;-70
2023/03/15 00:22:54;;;;;;;1.90;0.60;;;21.50;63.30;;;;;;5052472;28;20516;-70
2023/03/15 00:25:19;;;;;;;0.38;0.35;;;21.50;63.30;;;;;;5050621;28;20056;-70
2023/03/15 00:27:45;;;;;;;1.17;0.57;;;21.50;63.40;;;;;;5052271;28;20025;-70
2023/03/15 00:30:11;;;;;;;1.00;0.52;;;21.50;63.50;;;;;;5051990;28;20025;-70
2023/03/15 00:32:36;;;;;;;1.00;0.45;;;21.50;63.50;;;;;;5034287;28;20025;-70
2023/03/15 00:35:02;;;;;;;2.60;0.47;;;21.50;63.50;;;;;;5051046;28;20064;-70
2023/03/15 00:37:28;;;;;;;1.98;0.57;;;21.50;63.50;;;;;;5056369;28;20456;-70
2023/03/15 00:39:54;;;;;;;0.73;0.40;;;21.50;63.50;;;;;;5054924;28;20505;-70
2023/03/15 00:42:20;;;;;;;0.50;0.40;;;21.50;63.50;;;;;;5055896;28;20025;-70
2023/03/15 00:44:45;;;;;;;1.42;0.50;;;21.50;63.60;;;;;;5055023;28;20067;-70
2023/03/15 00:47:12;;;;;;;1.42;0.50;;;21.50;63.50;;;;;;5054774;28;20028;-70
2023/03/15 00:49:38;;;;;;;3.00;0.60;;;21.60;63.60;;;;;;5054807;28;20017;-70
2023/03/15 00:52:04;;;;;;;1.98;0.40;;;21.60;63.70;;;;;;5054839;28;20051;-70
2023/03/15 00:54:32;;;;;;;1.05;0.50;;;21.50;63.60;;;;;;5054492;28;20409;-70
2023/03/15 00:57:00;;;;;;;1.58;0.52;;;21.60;63.70;;;;;;5055947;28;20025;-70
2023/03/15 00:59:33;;;;;;;0.55;0.40;;;21.50;63.60;;;;;;5055874;28;20503;-71
2023/03/15 01:02:00;;;;;;;2.05;0.47;;;21.60;63.70;;;;;;5054816;28;20021;-70
2023/03/15 01:04:26;;;;;;;0.90;0.47;;;21.50;63.60;;;;;;5055423;28;20025;-70
2023/03/15 01:06:51;;;;;;;1.88;0.40;;;21.60;63.70;;;;;;5055848;28;20400;-71
2023/03/15 01:09:17;;;;;;;2.15;0.95;;;21.60;63.70;;;;;;5055282;28;20488;-71
2023/03/15 01:11:42;;;;;;;0.90;0.40;;;21.50;63.60;;;;;;5085269;28;20021;-71
2023/03/15 01:14:08;;;;;;;2.60;0.50;;;21.60;64.80;;;;;;5035707;28;20030;-70
2023/03/15 01:16:34;;;;;;;1.30;0.50;;;21.60;63.70;;;;;;5067612;28;20480;-70
2023/03/15 01:19:00;;;;;;;0.60;0.45;;;21.60;63.70;;;;;;5035533;28;20025;-70
2023/03/15 01:21:25;;;;;;;0.90;0.50;;;21.50;63.70;;;;;;5035485;28;20038;-70
2023/03/15 01:23:52;;;;;;;2.22;0.50;;;21.60;63.80;;;;;;5067383;28;20057;-70
2023/03/15 01:26:18;;;;;;;1.10;0.43;;;21.60;64.80;;;;;;5067371;28;20021;-70
2023/03/15 01:28:44;;;;;;;1.85;0.50;;;21.60;63.80;;;;;;5035508;28;20025;-70
2023/03/15 01:31:19;;;;;;;0.45;0.40;;;21.60;63.80;;;;;;5050538;28;20041;-70
2023/03/15 01:33:44;;;;;;;0.30;0.30;;;21.60;63.90;;;;;;5035318;28;20021;-70
2023/03/15 01:36:10;;;;;;;2.25;0.40;;;21.60;63.90;;;;;;5067216;28;20048;-70
2023/03/15 01:38:36;;;;;;;0.40;0.40;;;21.60;63.90;;;;;;5050525;28;20071;-70
2023/03/15 01:41:01;;;;;;;2.17;0.50;;;21.60;63.80;;;;;;5035214;28;20040;-71
2023/03/15 01:43:28;;;;;;;0.50;0.30;;;21.60;63.90;;;;;;5050473;28;20029;-70
2023/03/15 01:46:24;;;;;;;0.98;0.25;;;21.60;63.90;;;;;;5034560;28;20393;-70
2023/03/15 01:48:55;;;;;;;2.25;0.50;;;21.60;64.00;;;;;;5035047;28;20025;-70
2023/03/15 01:51:59;;;;;;;0.67;0.60;;;21.60;64.00;;;;;;5034645;28;20528;-70
2023/03/15 02:01:08;;;;;;;1.67;0.40;;;21.60;64.10;;;;;;5035014;28;20071;-70
2023/03/15 02:03:35;;;;;;;1.58;0.32;;;21.70;64.10;;;;;;5050154;28;20037;-70
2023/03/15 02:06:06;;;;;;;0.25;0.25;;;21.60;64.10;;;;;;5051784;28;20037;-70
2023/03/15 02:08:34;;;;;;;1.50;0.50;;;21.70;64.20;;;;;;5053351;28;20024;-70
2023/03/15 02:11:01;;;;;;;0.52;0.30;;;21.70;64.20;;;;;;5053379;28;20053;-70
2023/03/15 02:13:28;;;;;;;0.68;0.30;;;21.60;64.10;;;;;;5054369;28;20017;-70
2023/03/15 02:15:54;;;;;;;1.88;0.68;;;21.70;65.20;;;;;;5053228;28;20043;-70
2023/03/15 02:18:19;;;;;;;1.13;0.30;;;21.60;64.20;;;;;;5052997;28;20025;-70
2023/03/15 02:21:16;;;;;;;0.40;0.40;;;21.70;64.30;;;;;;5052996;28;20033;-70
2023/03/15 02:23:42;;;;;;;0.57;0.32;;;21.70;64.30;;;;;;5054342;28;20052;-70
2023/03/15 02:26:11;;;;;;;0.77;0.43;;;21.60;64.20;;;;;;5053176;28;20033;-70
2023/03/15 02:28:37;;;;;;;0.82;0.40;;;21.70;64.40;;;;;;5054235;28;20519;-70
2023/03/15 02:31:03;;;;;;;0.20;0.20;;;21.70;64.30;;;;;;5052919;28;20025;-70
2023/03/15 02:33:30;;;;;;;0.22;0.20;;;21.70;64.40;;;;;;5054117;28;20017;-70
2023/03/15 02:36:07;;;;;;;0.50;0.40;;;21.70;64.40;;;;;;5052702;28;20439;-70
2023/03/15 02:38:32;;;;;;;0.52;0.20;;;21.70;64.50;;;;;;5052862;28;20393;-70
2023/03/15 02:40:58;;;;;;;0.77;0.40;;;21.70;64.50;;;;;;5054131;28;20032;-70
2023/03/15 02:43:24;;;;;;;0.85;0.43;;;21.70;64.40;;;;;;5052464;28;20606;-70
2023/03/15 02:45:50;;;;;;;4.45;0.60;;;21.70;64.40;;;;;;5052674;28;20435;-70
2023/03/15 02:48:16;;;;;;;0.40;0.40;;;21.70;64.50;;;;;;5052655;28;20104;-70
2023/03/15 02:50:41;;;;;;;1.25;0.50;;;21.70;64.40;;;;;;5052383;28;20121;-70
2023/03/15 02:53:07;;;;;;;1.38;0.30;;;21.70;64.40;;;;;;5052577;28;20025;-70
2023/03/15 02:55:33;;;;;;;1.05;0.40;;;21.70;64.40;;;;;;5053565;28;20108;-70
2023/03/15 02:57:59;;;;;;;1.40;0.50;;;21.70;64.40;;;;;;5051539;28;20104;-70
2023/03/15 03:00:25;;;;;;;1.73;0.40;;;21.60;64.40;;;;;;5052320;28;20031;-70
2023/03/15 03:02:50;;;;;;;0.73;0.40;;;21.70;64.40;;;;;;5053739;28;20017;-71
2023/03/15 03:05:16;;;;;;;1.25;0.45;;;21.70;64.60;;;;;;5052865;28;20036;-70
2023/03/15 03:07:42;;;;;;;1.08;0.43;;;21.70;64.50;;;;;;5085736;28;20025;-70
2023/03/15 03:10:10;;;;;;;2.53;0.40;;;21.70;64.60;;;;;;5068943;28;20029;-70
2023/03/15 03:12:36;;;;;;;0.50;0.50;;;21.70;64.60;;;;;;5043015;28;20049;-70
2023/03/15 03:15:03;;;;;;;0.40;0.30;;;21.70;64.50;;;;;;5033539;28;20061;-70
2023/03/15 03:17:29;;;;;;;1.50;0.50;;;21.70;64.50;;;;;;5033197;28;20021;-70
2023/03/15 03:19:54;;;;;;;0.32;0.30;;;21.70;64.50;;;;;;5033159;28;20041;-70
2023/03/15 03:22:23;;;;;;;1.20;0.50;;;21.70;64.50;;;;;;5065178;28;20505;-70
2023/03/15 03:24:50;;;;;;;1.13;0.50;;;21.70;65.50;;;;;;5033267;28;20025;-70
2023/03/15 03:27:15;;;;;;;1.77;0.30;;;21.70;64.40;;;;;;5065261;28;20049;-70
2023/03/15 03:29:41;;;;;;;2.10;0.38;;;21.70;64.40;;;;;;5065152;28;20506;-70
2023/03/15 03:32:07;;;;;;;1.98;0.40;;;21.70;64.30;;;;;;5033230;28;20060;-70
2023/03/15 03:34:33;;;;;;;0.75;0.60;;;21.70;64.40;;;;;;5048110;28;20033;-70
2023/03/15 03:36:59;;;;;;;0.82;0.40;;;21.70;64.30;;;;;;5065061;28;20068;-70
2023/03/15 03:39:24;;;;;;;1.75;0.50;;;21.70;64.30;;;;;;5033011;28;20100;-70
2023/03/15 03:41:50;;;;;;;0.40;0.40;;;21.70;64.30;;;;;;5064831;28;20429;-70
2023/03/15 03:44:16;;;;;;;0.90;0.35;;;21.70;64.30;;;;;;5032662;28;20539;-70
2023/03/15 03:46:42;;;;;;;0.98;0.20;;;21.70;64.30;;;;;;5064959;28;20014;-70
2023/03/15 03:49:07;;;;;;;1.35;0.32;;;21.70;64.30;;;;;;5064549;28;20024;-70
2023/03/15 03:51:33;;;;;;;0.25;0.20;;;21.70;64.30;;;;;;5064565;28;20077;-70
2023/03/15 03:54:00;;;;;;;0.50;0.30;;;21.70;64.30;;;;;;5064544;28;20033;-70
2023/03/15 03:56:26;;;;;;;0.30;0.20;;;21.70;64.30;;;;;;5032551;28;20064;-71
2023/03/15 03:58:51;;;;;;;0.45;0.40;;;21.70;64.30;;;;;;5032757;28;20025;-70
2023/03/15 04:01:18;;;;;;;1.45;0.43;;;21.70;64.30;;;;;;5032656;28;20045;-70
2023/03/15 04:03:44;;;;;;;0.73;0.20;;;21.70;64.30;;;;;;5032208;28;20010;-70
2023/03/15 04:06:09;;;;;;;0.70;0.40;;;21.70;64.30;;;;;;5052568;28;20481;-70
2023/03/15 04:08:35;;;;;;;0.50;0.40;;;21.70;64.30;;;;;;5051176;28;20032;-70
2023/03/15 04:11:02;;;;;;;0.65;0.22;;;21.80;64.40;;;;;;5052403;28;20025;-71
2023/03/15 04:13:28;;;;;;;1.90;0.60;;;21.80;64.40;;;;;;5034891;28;20028;-70
2023/03/15 04:15:56;;;;;;;0.40;0.30;;;21.70;64.30;;;;;;5064261;28;20026;-70
2023/03/15 04:18:22;;;;;;;0.30;0.20;;;21.70;64.40;;;;;;5032266;28;20023;-70
2023/03/15 04:20:48;;;;;;;2.30;0.47;;;21.70;64.40;;;;;;5064422;28;20493;-70
2023/03/15 04:23:14;;;;;;;3.65;0.45;;;21.70;64.40;;;;;;5032437;28;20033;-70
2023/03/15 04:25:40;;;;;;;1.38;0.50;;;21.70;64.40;;;;;;5031932;28;20021;-70
2023/03/15 04:28:09;;;;;;;0.50;0.40;;;21.70;64.40;;;;;;5064299;28;20029;-70
2023/03/15 04:30:35;;;;;;;2.10;0.30;;;21.70;64.40;;;;;;5064102;28;20435;-70
2023/03/15 04:33:02;;;;;;;0.77;0.50;;;21.70;64.40;;;;;;5064257;28;20437;-70
2023/03/15 04:35:37;;;;;;;0.82;0.40;;;21.70;64.40;;;;;;5032217;28;20057;-70
2023/03/15 04:38:03;;;;;;;0.75;0.52;;;21.70;64.40;;;;;;5047559;28;20030;-70
2023/03/15 04:40:33;;;;;;;2.75;0.30;;;21.70;64.40;;;;;;5047421;28;20022;-70
2023/03/15 04:43:00;;;;;;;0.30;0.30;;;21.70;64.50;;;;;;5063106;28;20029;-70
2023/03/15 04:45:26;;;;;;;0.35;0.35;;;21.70;64.50;;;;;;5047162;28;20032;-70
2023/03/15 04:47:52;;;;;;;0.50;0.20;;;21.70;64.50;;;;;;5063949;28;20042;-70
2023/03/15 04:50:18;;;;;;;0.38;0.20;;;21.70;64.50;;;;;;5047285;28;20046;-70
2023/03/15 04:52:43;;;;;;;1.80;0.30;;;21.80;64.50;;;;;;5032076;28;20017;-70
2023/03/15 04:55:09;;;;;;;1.85;0.47;;;21.70;64.40;;;;;;5063959;28;20378;-70
2023/03/15 04:57:35;;;;;;;0.40;0.20;;;21.70;64.40;;;;;;5063883;28;20508;-70
2023/03/15 05:00:00;;;;;;;1.08;0.30;;;21.70;64.40;;;;;;5064013;28;20033;-70
2023/03/15 05:02:26;;;;;;;0.38;0.20;;;21.70;64.40;;;;;;5031865;28;20404;-70
2023/03/15 05:04:52;;;;;;;0.38;0.32;;;21.70;64.40;;;;;;5073426;28;20459;-70
2023/03/15 05:07:17;;;;;;;0.32;0.32;;;21.70;64.50;;;;;;5051750;28;20403;-70
2023/03/15 05:09:45;;;;;;;1.20;0.40;;;21.70;64.40;;;;;;5051756;28;20408;-70
2023/03/15 05:12:11;;;;;;;3.70;0.50;;;21.70;64.50;;;;;;5051850;28;20013;-70
2023/03/15 05:14:37;;;;;;;0.55;0.30;;;21.70;64.50;;;;;;5050376;28;20032;-70
2023/03/15 05:17:02;;;;;;;1.00;0.40;;;21.70;64.50;;;;;;5051852;28;20025;-70
2023/03/15 05:19:28;;;;;;;0.52;0.30;;;21.70;64.50;;;;;;5051670;28;20409;-71
2023/03/15 05:21:54;;;;;;;0.82;0.32;;;21.70;64.50;;;;;;5052081;28;20052;-70
2023/03/15 05:24:23;;;;;;;0.47;0.32;;;21.70;64.50;;;;;;5054376;28;20035;-70
2023/03/15 05:26:48;;;;;;;0.55;0.30;;;21.70;64.50;;;;;;5055483;28;20370;-70
2023/03/15 05:29:14;;;;;;;0.82;0.17;;;21.70;64.50;;;;;;5055093;28;20028;-70
2023/03/15 05:31:40;;;;;;;0.60;0.40;;;21.70;64.50;;;;;;5055181;28;20028;-70
2023/03/15 05:34:06;;;;;;;0.30;0.30;;;21.70;64.50;;;;;;5054345;28;20064;-70
2023/03/15 05:36:32;;;;;;;0.50;0.30;;;21.70;64.50;;;;;;5055148;28;20021;-70
2023/03/15 05:38:58;;;;;;;0.75;0.38;;;21.70;64.50;;;;;;5055260;28;20056;-70
2023/03/15 05:41:23;;;;;;;0.60;0.32;;;21.70;64.50;;;;;;5054216;28;20056;-70
2023/03/15 05:43:50;;;;;;;0.68;0.30;;;21.70;64.50;;;;;;5054581;28;20101;-70
2023/03/15 05:46:15;;;;;;;1.50;0.30;;;21.70;64.60;;;;;;5053929;28;20021;-70
2023/03/15 05:48:41;;;;;;;0.32;0.30;;;21.70;64.50;;;;;;5054830;28;20033;-70
2023/03/15 05:51:07;;;;;;;0.68;0.40;;;21.70;64.60;;;;;;5054730;28;20045;-70
2023/03/15 05:53:32;;;;;;;0.30;0.25;;;21.70;64.60;;;;;;5054930;28;20025;-70
2023/03/15 05:55:58;;;;;;;0.45;0.40;;;21.70;64.60;;;;;;5052547;28;20151;-70
2023/03/15 05:58:24;;;;;;;1.02;0.55;;;21.70;64.70;;;;;;5052082;28;20066;-70
2023/03/15 06:00:49;;;;;;;0.85;0.28;;;21.70;64.70;;;;;;5053386;28;20107;-71
2023/03/15 06:03:15;;;;;;;0.68;0.40;;;21.70;64.90;;;;;;5052856;28;20481;-70
2023/03/15 06:05:41;;;;;;;1.20;0.20;;;21.70;64.90;;;;;;5053012;28;20384;-71
2023/03/15 06:08:07;;;;;;;0.52;0.30;;;21.70;64.90;;;;;;5052340;28;20037;-70
2023/03/15 06:10:32;;;;;;;1.13;0.30;;;21.70;64.90;;;;;;5053168;28;20083;-71
2023/03/15 06:12:58;;;;;;;1.15;0.38;;;21.70;65.00;;;;;;5064838;28;20013;-71
2023/03/15 06:15:24;;;;;;;0.63;0.32;;;21.70;65.00;;;;;;5071787;28;20027;-71
2023/03/15 06:17:50;;;;;;;0.38;0.22;;;21.70;65.00;;;;;;5072949;28;20107;-70
2023/03/15 06:20:16;;;;;;;0.25;0.10;;;21.70;65.10;;;;;;5071881;28;20506;-70
2023/03/15 06:22:41;;;;;;;0.38;0.20;;;21.70;65.00;;;;;;5072763;28;20021;-70
2023/03/15 06:25:07;;;;;;;1.02;0.30;;;21.70;65.10;;;;;;5072901;28;20496;-70
2023/03/15 06:27:33;;;;;;;0.60;0.20;;;21.70;65.10;;;;;;5071510;28;20032;-70
2023/03/15 06:29:59;;;;;;;0.43;0.20;;;21.70;65.10;;;;;;5072738;28;20020;-71
2023/03/15 06:32:24;;;;;;;2.55;0.32;;;21.70;65.20;;;;;;5070900;28;20047;-70
2023/03/15 06:34:50;;;;;;;0.38;0.32;;;21.70;65.20;;;;;;5070795;28;20395;-71
2023/03/15 06:37:16;;;;;;;0.98;0.40;;;21.70;65.20;;;;;;5071692;28;20037;-71
2023/03/15 06:39:43;;;;;;;0.70;0.28;;;21.70;59.80;;;;;;5049039;28;20024;-71
2023/03/15 06:42:11;;;;;;;0.47;0.20;;;21.50;59.00;;;;;;5053928;28;20021;-70
2023/03/15 06:44:38;;;;;;;1.13;0.28;;;21.30;59.30;;;;;;5052344;28;20052;-71
2023/03/15 06:47:04;;;;;;;0.40;0.28;;;21.20;59.80;;;;;;5071025;28;20399;-71
2023/03/15 06:49:30;;;;;;;1.15;0.30;;;21.20;59.90;;;;;;5062897;28;20021;-71
2023/03/15 06:51:55;;;;;;;0.60;0.30;;;21.10;59.80;;;;;;5052071;28;20040;-70
2023/03/15 06:54:22;;;;;;;0.52;0.30;;;21.10;59.70;;;;;;5052408;28;20021;-70
2023/03/15 06:56:47;;;;;;;1.45;0.40;;;21.10;59.70;;;;;;5050889;28;20024;-70
2023/03/15 06:59:13;;;;;;;1.55;0.50;;;21.00;59.60;;;;;;5069249;28;20021;-70
2023/03/15 07:01:39;;;;;;;1.85;0.38;;;20.90;59.60;;;;;;5071806;28;20021;-70
2023/03/15 07:04:05;;;;;;;0.60;0.40;;;20.90;59.70;;;;;;5068757;28;20104;-70
2023/03/15 07:06:30;;;;;;;0.73;0.35;;;20.90;59.60;;;;;;5050701;28;20595;-70
2023/03/15 07:08:56;;;;;;;0.38;0.30;;;20.80;59.30;;;;;;5052047;28;20092;-70
2023/03/15 07:11:21;;;;;;;0.43;0.40;;;20.80;59.40;;;;;;5050668;28;20029;-70
2023/03/15 07:13:47;;;;;;;1.38;0.43;;;20.70;59.40;;;;;;5051815;28;20013;-70
2023/03/15 07:16:13;;;;;;;1.67;0.57;;;20.60;59.40;;;;;;5068622;28;20059;-70
2023/03/15 07:18:38;;;;;;;0.82;0.40;;;20.60;59.30;;;;;;5071461;28;20027;-69
2023/03/15 07:21:06;;;;;;;2.00;0.60;;;20.50;59.50;;;;;;5071423;28;20047;-69
2023/03/15 07:23:32;;;;;;;0.55;0.40;;;20.50;59.50;;;;;;5070213;28;20054;-71
2023/03/15 07:25:58;;;;;;;1.98;0.60;;;20.50;59.50;;;;;;5053125;28;20021;-71
2023/03/15 07:28:24;;;;;;;13.82;1.77;;;20.40;59.80;;;;;;5055516;28;20021;-70
2023/03/15 07:30:52;;;;;;;6.10;1.08;;;20.40;61.20;;;;;;5050523;28;20481;-71
2023/03/15 07:33:21;;;;;;;4.35;0.90;;;20.40;61.20;;;;;;5051809;28;20029;-71
2023/03/15 07:35:48;;;;;;;3.28;0.77;;;20.30;61.20;;;;;;5050511;28;20056;-68
2023/03/15 07:38:13;;;;;;;3.35;1.17;;;20.30;61.40;;;;;;5051713;28;20021;-70
2023/03/15 07:40:39;;;;;;;2.80;1.40;;;20.30;61.40;;;;;;5054117;28;20031;-70
2023/03/15 07:43:05;;;;;;;1.50;0.90;;;20.30;61.40;;;;;;5070848;28;20028;-70
2023/03/15 07:45:31;;;;;;;4.30;1.05;;;20.20;61.40;;;;;;5070951;28;20436;-70
2023/03/15 07:47:56;;;;;;;4.55;1.00;;;20.20;61.50;;;;;;5071178;28;20021;-70
2023/03/15 07:50:22;;;;;;;4.75;1.20;;;20.10;61.60;;;;;;5052507;28;20057;-70
2023/03/15 07:52:48;;;;;;;2.92;1.05;;;20.10;61.70;;;;;;5048849;28;20017;-70
2023/03/15 07:55:13;;;;;;;4.18;1.00;;;20.10;61.80;;;;;;5050110;28;20065;-70
2023/03/15 07:57:39;;;;;;;3.08;1.10;;;20.10;61.90;;;;;;5049230;28;20044;-70
2023/03/15 08:00:05;;;;;;;2.40;1.20;;;20.10;62.00;;;;;;5049769;28;20052;-70
2023/03/15 08:02:31;;;;;;;4.40;1.45;;;20.00;62.10;;;;;;5035036;28;20029;-70
2023/03/15 08:04:57;;;;;;;3.78;1.30;;;20.00;62.20;;;;;;5081428;28;20093;-70
2023/03/15 08:07:23;;;;;;;4.03;1.10;;;20.00;62.20;;;;;;5049808;28;20454;-70
2023/03/15 08:09:48;;;;;;;5.30;1.15;;;20.00;62.20;;;;;;5032195;28;20053;-70
2023/03/15 08:12:14;;;;;;;4.63;1.55;;;19.90;62.40;;;;;;5032581;28;20107;-70
2023/03/15 08:14:40;;;;;;;1.80;0.90;;;19.90;62.40;;;;;;5032553;28;20098;-70
2023/03/15 08:17:06;;;;;;;1.38;0.82;;;19.90;62.50;;;;;;5044514;28;20028;-70
2023/03/15 08:19:31;;;;;;;1.80;1.10;;;19.90;62.60;;;;;;5051313;28;20025;-70
2023/03/15 08:21:57;;;;;;;3.05;0.90;;;19.90;62.70;;;;;;5050989;28;20028;-70
2023/03/15 08:24:23;;;;;;;2.25;0.82;;;19.80;62.80;;;;;;5034061;28;20025;-70
2023/03/15 08:26:50;;;;;;;2.30;0.90;;;19.80;62.90;;;;;;5052142;28;20550;-70
2023/03/15 08:29:15;;;;;;;4.05;1.42;;;19.80;62.90;;;;;;5050873;28;20025;-70
2023/03/15 08:31:41;;;;;;;2.25;1.00;;;19.80;63.00;;;;;;5052390;28;20032;-70
2023/03/15 08:34:07;;;;;;;2.03;0.98;;;19.70;63.10;;;;;;5039024;28;20048;-70
2023/03/15 08:36:32;;;;;;;1.67;1.00;;;19.70;63.10;;;;;;5032281;28;20025;-70
2023/03/15 08:38:58;;;;;;;2.53;0.85;;;19.70;63.10;;;;;;5031750;28;20026;-70
2023/03/15 08:41:23;;;;;;;3.40;0.73;;;19.70;63.20;;;;;;5043234;28;20061;-70
2023/03/15 08:43:49;;;;;;;2.72;1.10;;;19.60;63.30;;;;;;5051929;28;20166;-70
2023/03/15 08:46:16;;;;;;;2.47;0.77;;;19.60;63.30;;;;;;5051982;28;20426;-70
2023/03/15 08:48:42;;;;;;;1.95;1.10;;;19.60;63.40;;;;;;5050890;28;20025;-70
2023/03/15 08:51:07;;;;;;;2.00;0.90;;;19.50;63.40;;;;;;5051683;28;20441;-70
2023/03/15 08:53:33;;;;;;;2.97;0.90;;;19.50;63.40;;;;;;5050701;28;20028;-70
2023/03/15 08:55:59;;;;;;;1.58;0.88;;;19.50;63.50;;;;;;5050893;28;20051;-70
2023/03/15 08:58:24;;;;;;;2.17;0.90;;;19.50;63.60;;;;;;5054792;28;20399;-70
2023/03/15 09:00:50;;;;;;;3.65;0.90;;;19.50;63.80;;;;;;5055990;28;20025;-70
2023/03/15 09:03:17;;;;;;;4.60;0.88;;;19.50;63.80;;;;;;5054597;28;20110;-70
2023/03/15 09:05:43;;;;;;;3.13;0.95;;;19.40;63.70;;;;;;5055564;28;20070;-70
2023/03/15 09:08:08;;;;;;;3.35;0.90;;;19.40;63.80;;;;;;5044418;28;20026;-70
2023/03/15 09:10:34;;;;;;;2.78;1.02;;;19.40;64.00;;;;;;5035791;28;20066;-70
2023/03/15 09:13:00;;;;;;;1.95;0.80;;;19.30;64.00;;;;;;5035732;28;20018;-70
2023/03/15 09:15:25;;;;;;;2.05;0.80;;;19.30;64.00;;;;;;5051002;28;20021;-70
2023/03/15 09:17:51;;;;;;;2.45;0.82;;;19.30;64.00;;;;;;5035456;28;20032;-70
2023/03/15 09:20:17;;;;;;;2.72;0.73;;;19.30;64.20;;;;;;5050910;28;20021;-70
2023/03/15 09:22:48;;;;;;;1.55;0.75;;;19.30;64.40;;;;;;5035501;28;20452;-70
2023/03/15 09:25:13;;;;;;;2.85;0.88;;;19.30;64.30;;;;;;5035477;28;20022;-70
2023/03/15 09:27:39;;;;;;;1.35;0.80;;;19.30;64.50;;;;;;5035404;28;20029;-70
2023/03/15 09:30:05;;;;;;;1.98;0.70;;;19.20;64.60;;;;;;5067430;28;20042;-70
2023/03/15 09:32:35;;;;;;;1.33;0.75;;;19.20;64.70;;;;;;5035570;28;20017;-70
2023/03/15 09:35:02;;;;;;;2.97;0.90;;;19.20;64.80;;;;;;5035062;28;20048;-70
2023/03/15 09:37:27;;;;;;;1.70;0.90;;;19.20;65.00;;;;;;5067086;28;20025;-70
2023/03/15 09:39:53;;;;;;;2.30;0.90;;;19.20;65.00;;;;;;5033879;28;20094;-70
2023/03/15 09:42:24;;;;;;;3.55;0.93;;;19.10;64.90;;;;;;5053563;28;20036;-70
2023/03/15 09:44:55;;;;;;;1.45;0.93;;;19.10;65.00;;;;;;5053947;28;20028;-70
2023/03/15 09:47:45;;;;;;;1.63;0.70;;;19.10;65.10;;;;;;5053771;28;20432;-70
2023/03/15 09:50:21;;;;;;;1.63;0.80;;;19.10;65.30;;;;;;5053445;28;20045;-70
2023/03/15 09:52:55;;;;;;;2.55;0.85;;;19.00;65.20;;;;;;5054118;28;20068;-70
2023/03/15 09:55:20;;;;;;;1.67;0.70;;;19.10;65.30;;;;;;5036979;28;20029;-70
2023/03/15 09:57:52;;;;;;;1.20;0.50;;;19.10;65.40;;;;;;5054800;28;20515;-70
2023/03/15 10:00:36;;;;;;;1.20;0.80;;;19.00;65.50;;;;;;5054633;28;20021;-70
2023/03/15 10:03:05;;;;;;;2.00;0.70;;;19.00;65.50;;;;;;5053530;28;20024;-70
2023/03/15 10:05:34;;;;;;;2.28;0.90;;;19.00;65.50;;;;;;5053389;28;20025;-70
2023/03/15 10:07:59;;;;;;;1.27;0.60;;;19.00;65.70;;;;;;5044439;28;20473;-70
2023/03/15 10:10:31;;;;;;;0.90;0.50;;;19.00;65.70;;;;;;5034576;28;20052;-70
2023/03/15 10:13:11;;;;;;;0.47;0.45;;;18.90;65.70;;;;;;5049550;28;20072;-70
2023/03/15 10:16:14;;;;;;;1.27;0.65;;;18.90;65.70;;;;;;5034633;28;20041;-70
2023/03/15 10:19:12;;;;;;;1.97;0.83;;;18.90;65.80;;;;;;5056409;28;20119;-70
2023/03/15 10:21:58;;;;;;;2.05;1.00;;;18.90;65.90;;;;;;5034075;28;20041;-70
2023/03/15 10:24:26;;;;;;;1.63;0.47;;;18.90;65.90;;;;;;5066332;28;20056;-70
2023/03/15 10:26:52;;;;;;;1.52;0.70;;;18.90;66.10;;;;;;5066632;28;20033;-70
2023/03/15 10:29:19;;;;;;;1.60;0.57;;;18.80;66.10;;;;;;5066366;28;20030;-70
2023/03/15 10:31:46;;;;;;;1.60;0.80;;;18.90;66.20;;;;;;5066269;28;20029;-70
2023/03/15 10:34:12;;;;;;;1.58;0.70;;;18.80;66.20;;;;;;5034007;28;20405;-70
2023/03/15 10:36:43;;;;;;;1.58;0.60;;;18.80;66.30;;;;;;5065968;28;20033;-70
2023/03/15 10:39:09;;;;;;;1.20;0.75;;;18.80;66.20;;;;;;5064701;28;20022;-70
2023/03/15 10:41:39;;;;;;;1.45;0.75;;;18.80;66.30;;;;;;5062133;28;20176;-70
2023/03/15 10:44:12;;;;;;;0.68;0.60;;;18.80;66.50;;;;;;5052581;28;20489;-70
2023/03/15 10:46:38;;;;;;;1.15;0.55;;;18.80;66.50;;;;;;5052797;28;20036;-70
2023/03/15 10:49:11;;;;;;;0.65;0.55;;;18.70;66.50;;;;;;5053642;28;20021;-70
2023/03/15 10:51:40;;;;;;;1.77;0.55;;;18.80;66.60;;;;;;5053749;28;20041;-70
2023/03/15 10:54:22;;;;;;;1.15;0.68;;;18.70;66.60;;;;;;5052738;28;20052;-70
2023/03/15 10:57:13;;;;;;;1.00;0.60;;;18.70;66.60;;;;;;5052733;28;20071;-70
2023/03/15 11:00:16;;;;;;;1.27;0.57;;;18.70;66.70;;;;;;5053656;28;20024;-70
2023/03/15 11:02:48;;;;;;;1.27;0.68;;;18.70;66.80;;;;;;5052658;28;20029;-70
2023/03/15 11:05:15;;;;;;;1.83;0.70;;;18.60;66.70;;;;;;5052415;28;20178;-70
2023/03/15 11:08:01;;;;;;;1.02;0.50;;;18.70;67.00;;;;;;5035697;28;20052;-70
2023/03/15 11:10:28;;;;;;;1.75;0.57;;;18.70;67.00;;;;;;5053252;28;20037;-70
2023/03/15 11:13:16;;;;;;;0.50;0.40;;;18.70;67.10;;;;;;5052391;28;20508;-70
2023/03/15 11:15:52;;;;;;;2.35;0.60;;;18.60;67.10;;;;;;5052161;28;20028;-70
2023/03/15 11:18:19;;;;;;;1.10;0.70;;;18.60;67.20;;;;;;5051735;28;20580;-70
2023/03/15 11:20:45;;;;;;;1.00;0.70;;;18.60;67.20;;;;;;5034837;28;20430;-70
2023/03/15 11:23:18;;;;;;;1.08;0.70;;;18.60;67.30;;;;;;5053144;28;20033;-70
2023/03/15 11:25:44;;;;;;;1.92;0.60;;;18.60;67.30;;;;;;5052001;28;20021;-70
2023/03/15 11:28:15;;;;;;;0.80;0.50;;;18.50;67.40;;;;;;5051854;28;20485;-70
2023/03/15 11:30:40;;;;;;;1.40;0.60;;;18.60;67.50;;;;;;5052007;28;20067;-70
2023/03/15 11:33:07;;;;;;;1.42;0.60;;;18.50;67.40;;;;;;5051676;28;20108;-70
2023/03/15 11:35:36;;;;;;;0.65;0.40;;;18.50;67.50;;;;;;5051852;28;20025;-70
2023/03/15 11:38:27;;;;;;;1.00;0.60;;;18.50;67.50;;;;;;5051783;28;20071;-70
2023/03/15 11:40:55;;;;;;;1.00;0.57;;;18.60;67.70;;;;;;5049157;28;20025;-70
2023/03/15 11:43:26;;;;;;;1.15;0.40;;;18.60;67.70;;;;;;5052765;28;20025;-70
2023/03/15 11:46:09;;;;;;;0.70;0.50;;;18.50;67.70;;;;;;5067382;28;20029;-70
2023/03/15 11:48:49;;;;;;;1.13;0.65;;;18.50;67.80;;;;;;5067663;28;20511;-69
2023/03/15 11:51:14;;;;;;;1.92;0.65;;;18.50;67.80;;;;;;5084724;28;20179;-70
2023/03/15 11:54:04;;;;;;;0.85;0.50;;;18.50;67.80;;;;;;5068166;28;20029;-69
2023/03/15 11:56:42;;;;;;;0.82;0.57;;;18.50;68.00;;;;;;5078595;28;20408;-70
2023/03/15 11:59:11;;;;;;;0.70;0.50;;;18.50;68.10;;;;;;5052632;28;20143;-70
2023/03/15 12:01:57;;;;;;;1.00;0.43;;;18.40;68.00;;;;;;5067506;28;20032;-70
2023/03/15 12:04:32;;;;;;;0.70;0.50;;;18.40;68.00;;;;;;5024111;28;20046;-70
2023/03/15 12:07:23;;;;;;;0.80;0.40;;;18.40;68.00;;;;;;5009205;28;20041;-70
2023/03/15 12:09:54;;;;;;;0.93;0.50;;;18.40;68.00;;;;;;4965397;28;20042;-70
2023/03/15 12:12:23;;;;;;;0.80;0.60;;;18.40;68.10;;;;;;4952198;29;20118;-70
2023/03/15 12:15:01;;;;;;;1.13;0.52;;;18.40;68.10;;;;;;4952125;29;20570;-70
2023/03/15 12:17:27;;;;;;;1.05;0.55;;;18.40;68.20;;;;;;4952308;29;20031;-70
2023/03/15 12:20:11;;;;;;;0.47;0.40;;;18.40;68.20;;;;;;4952291;29;20042;-70
2023/03/15 12:22:40;;;;;;;1.67;0.75;;;18.40;68.20;;;;;;4952249;28;20131;-70
2023/03/15 12:25:21;;;;;;;0.95;0.50;;;18.40;68.30;;;;;;4952073;29;20562;-70
2023/03/15 12:27:57;;;;;;;2.33;0.65;;;18.40;68.30;;;;;;4952169;29;20031;-70
2023/03/15 12:30:24;;;;;;;0.45;0.43;;;18.40;68.30;;;;;;4951861;28;20070;-70
2023/03/15 12:32:52;;;;;;;0.60;0.35;;;18.40;68.30;;;;;;4952047;29;20119;-70
2023/03/15 12:35:19;;;;;;;0.80;0.50;;;18.40;68.40;;;;;;4951904;29;20043;-70
2023/03/15 12:37:45;;;;;;;2.63;0.60;;;18.30;68.40;;;;;;4952130;29;20597;-70
2023/03/15 12:40:14;;;;;;;1.33;0.47;;;18.40;68.50;;;;;;4950707;29;20039;-70
2023/03/15 12:42:40;;;;;;;1.58;0.77;;;18.30;68.50;;;;;;4951716;29;20059;-70
2023/03/15 12:45:14;;;;;;;2.08;0.60;;;18.30;68.50;;;;;;4951861;29;20554;-70
2023/03/15 12:47:44;;;;;;;0.40;0.40;;;18.40;68.50;;;;;;5018485;28;20086;-70
2023/03/15 12:50:45;;;;;;;1.35;0.63;;;18.30;68.50;;;;;;5031959;28;20107;-69
2023/03/15 12:53:30;;;;;;;0.40;0.35;;;18.30;68.60;;;;;;5030654;28;20116;-69
2023/03/15 12:55:57;;;;;;;0.93;0.52;;;18.30;68.60;;;;;;5030941;28;20049;-69
2023/03/15 12:58:28;;;;;;;1.25;0.50;;;18.30;68.70;;;;;;5031634;28;20025;-69
2023/03/15 13:00:54;;;;;;;0.98;0.52;;;18.30;68.70;;;;;;5031044;28;20068;-69